createdAt,value
2017-11-08T00:00:04.902Z,7.36
2017-11-08T00:01:04.896Z,7.39
2017-11-08T00:02:04.889Z,7.42
2017-11-08T00:03:04.883Z,7.48
2017-11-08T00:04:04.876Z,7.48
2017-11-08T00:05:04.871Z,7.45
2017-11-08T00:06:04.864Z,7.45
2017-11-08T00:07:04.861Z,7.50
2017-11-08T00:08:04.857Z,7.48
2017-11-08T00:09:04.843Z,7.41
2017-11-08T00:10:04.835Z,7.52
2017-11-08T00:11:04.824Z,7.50
2017-11-08T00:12:04.816Z,7.60
2017-11-08T00:13:04.811Z,7.62
2017-11-08T00:14:04.802Z,7.70
2017-11-08T00:15:04.796Z,7.62
2017-11-08T00:16:04.788Z,7.69
2017-11-08T00:17:04.782Z,7.69
2017-11-08T00:18:04.775Z,7.63
2017-11-08T00:19:04.771Z,7.63
2017-11-08T00:20:04.765Z,7.60
2017-11-08T00:21:04.759Z,7.66
2017-11-08T00:22:04.752Z,7.62
2017-11-08T00:23:04.745Z,7.57
2017-11-08T00:24:04.737Z,7.60
2017-11-08T00:25:04.732Z,7.63
2017-11-08T00:26:04.724Z,7.57
2017-11-08T00:27:04.712Z,7.66
2017-11-08T00:28:04.706Z,7.62
2017-11-08T00:29:04.698Z,7.57
2017-11-08T00:30:04.696Z,7.57
2017-11-08T00:31:04.693Z,7.60
2017-11-08T00:32:04.683Z,7.62
2017-11-08T00:33:04.676Z,7.58
2017-11-08T00:34:04.672Z,7.54
2017-11-08T00:35:04.658Z,7.69
2017-11-08T00:36:04.656Z,7.60
2017-11-08T00:37:04.643Z,7.54
2017-11-08T00:38:04.635Z,7.57
2017-11-08T00:39:04.630Z,7.55
2017-11-08T00:40:04.624Z,7.52
2017-11-08T00:41:04.616Z,7.47
2017-11-08T00:42:04.612Z,7.58
2017-11-08T00:43:04.607Z,7.51
2017-11-08T00:44:04.598Z,7.58
2017-11-08T00:45:04.594Z,7.63
2017-11-08T00:46:04.589Z,7.52
2017-11-08T00:47:04.579Z,7.62
2017-11-08T00:48:04.572Z,7.69
2017-11-08T00:49:04.566Z,7.62
2017-11-08T00:50:04.557Z,7.67
2017-11-08T00:51:04.547Z,7.58
2017-11-08T00:52:04.543Z,7.63
2017-11-08T00:53:04.534Z,7.63
2017-11-08T00:54:04.526Z,7.71
2017-11-08T00:55:04.523Z,7.71
2017-11-08T00:56:04.514Z,7.69
2017-11-08T00:57:04.507Z,7.73
2017-11-08T00:58:04.499Z,7.71
2017-11-08T00:59:04.496Z,7.74
2017-11-08T01:00:04.490Z,7.76
2017-11-08T01:01:04.482Z,7.77
2017-11-08T01:02:04.475Z,7.74
2017-11-08T01:03:04.468Z,7.69
2017-11-08T01:04:04.462Z,7.70
2017-11-08T01:05:04.457Z,7.63
2017-11-08T01:06:04.448Z,7.60
2017-11-08T01:07:04.438Z,7.63
2017-11-08T01:08:04.431Z,7.70
2017-11-08T01:09:04.425Z,7.66
2017-11-08T01:10:04.416Z,7.73
2017-11-08T01:11:04.409Z,7.66
2017-11-08T01:12:04.403Z,7.73
2017-11-08T01:13:04.397Z,7.71
2017-11-08T01:14:04.389Z,7.71
2017-11-08T01:15:04.387Z,7.76
2017-11-08T01:16:04.380Z,7.73
2017-11-08T01:17:04.373Z,7.77
2017-11-08T01:18:04.365Z,7.73
2017-11-08T01:19:04.366Z,7.82
2017-11-08T01:20:04.373Z,7.73
2017-11-08T01:21:04.346Z,7.71
2017-11-08T01:22:04.338Z,7.71
2017-11-08T01:23:04.330Z,7.60
2017-11-08T01:24:04.322Z,7.71
2017-11-08T01:25:04.314Z,7.66
2017-11-08T01:26:04.307Z,7.62
2017-11-08T01:27:04.300Z,7.57
2017-11-08T01:28:04.293Z,7.58
2017-11-08T01:29:04.288Z,7.57
2017-11-08T01:30:04.279Z,7.67
2017-11-08T01:31:04.278Z,7.67
2017-11-08T01:32:04.270Z,7.69
2017-11-08T01:33:04.264Z,7.67
2017-11-08T01:34:04.255Z,7.69
2017-11-08T01:35:04.246Z,7.71
2017-11-08T01:36:04.241Z,7.71
2017-11-08T01:37:04.232Z,7.73
2017-11-08T01:38:04.225Z,7.81
2017-11-08T01:39:04.222Z,7.74
2017-11-08T01:40:04.216Z,7.71
2017-11-08T01:41:04.209Z,7.73
2017-11-08T01:42:04.202Z,7.84
2017-11-08T01:43:04.196Z,7.88
2017-11-08T01:44:04.190Z,7.89
2017-11-08T01:45:04.181Z,7.86
2017-11-08T01:46:04.174Z,7.86
2017-11-08T01:47:04.163Z,7.88
2017-11-08T01:48:04.156Z,7.84
2017-11-08T01:49:04.150Z,7.88
2017-11-08T01:50:04.143Z,7.77
2017-11-08T01:51:04.136Z,7.92
2017-11-08T01:52:04.130Z,7.89
2017-11-08T01:53:04.121Z,7.89
2017-11-08T01:54:04.119Z,7.86
2017-11-08T01:55:04.112Z,7.84
2017-11-08T01:56:04.106Z,7.86
2017-11-08T01:57:04.098Z,7.85
2017-11-08T01:58:04.092Z,7.92
2017-11-08T01:59:04.086Z,7.86
2017-11-08T02:00:04.078Z,7.77
2017-11-08T02:01:04.072Z,7.82
2017-11-08T02:02:04.064Z,7.79
2017-11-08T02:03:04.053Z,7.67
2017-11-08T02:04:04.047Z,7.55
2017-11-08T02:05:04.041Z,7.48
2017-11-08T02:06:04.033Z,7.41
2017-11-08T02:07:04.027Z,7.42
2017-11-08T02:08:04.020Z,7.47
2017-11-08T02:09:04.013Z,7.48
2017-11-08T02:10:04.005Z,7.44
2017-11-08T02:11:04.003Z,7.42
2017-11-08T02:12:04.005Z,7.50
2017-11-08T02:13:03.994Z,7.55
2017-11-08T02:14:03.983Z,7.62
2017-11-08T02:15:03.976Z,7.63
2017-11-08T02:16:03.969Z,7.62
2017-11-08T02:17:03.963Z,7.60
2017-11-08T02:18:03.954Z,7.57
2017-11-08T02:19:03.945Z,7.57
2017-11-08T02:20:03.937Z,7.58
2017-11-08T02:21:03.929Z,7.66
2017-11-08T02:22:03.924Z,7.70
2017-11-08T02:23:03.916Z,7.67
2017-11-08T02:24:03.913Z,7.70
2017-11-08T02:25:03.904Z,7.73
2017-11-08T02:26:03.897Z,7.77
2017-11-08T02:27:03.894Z,7.74
2017-11-08T02:28:03.886Z,7.76
2017-11-08T02:29:03.886Z,7.81
2017-11-08T02:30:03.872Z,7.81
2017-11-08T02:31:03.865Z,7.73
2017-11-08T02:32:03.861Z,7.74
2017-11-08T02:33:03.853Z,7.76
2017-11-08T02:34:03.851Z,7.76
2017-11-08T02:35:03.845Z,7.81
2017-11-08T02:36:03.829Z,7.86
2017-11-08T02:37:03.822Z,7.82
2017-11-08T02:38:03.813Z,7.74
2017-11-08T02:39:03.811Z,7.88
2017-11-08T02:40:03.806Z,7.77
2017-11-08T02:41:03.799Z,7.85
2017-11-08T02:42:03.791Z,7.92
2017-11-08T02:43:03.780Z,7.88
2017-11-08T02:44:03.774Z,7.88
2017-11-08T02:45:03.773Z,7.88
2017-11-08T02:46:03.760Z,7.73
2017-11-08T02:47:03.751Z,7.86
2017-11-08T02:48:03.746Z,7.85
2017-11-08T02:49:03.740Z,7.89
2017-11-08T02:50:03.733Z,7.86
2017-11-08T02:51:03.730Z,7.91
2017-11-08T02:52:03.722Z,7.91
2017-11-08T02:53:03.716Z,7.86
2017-11-08T02:54:03.708Z,7.89
2017-11-08T02:55:03.702Z,7.88
2017-11-08T02:56:03.702Z,8.00
2017-11-08T02:57:03.689Z,7.89
2017-11-08T02:58:03.681Z,7.89
2017-11-08T02:59:03.670Z,8.02
2017-11-08T03:00:03.664Z,7.94
2017-11-08T03:01:03.656Z,8.02
2017-11-08T03:02:03.653Z,8.02
2017-11-08T03:03:03.648Z,8.02
2017-11-08T03:04:03.636Z,8.03
2017-11-08T03:05:03.630Z,7.95
2017-11-08T03:06:03.620Z,7.99
2017-11-08T03:07:03.618Z,7.92
2017-11-08T03:08:03.611Z,8.04
2017-11-08T03:09:03.604Z,7.99
2017-11-08T03:10:03.597Z,7.95
2017-11-08T03:11:03.591Z,7.99
2017-11-08T03:12:03.583Z,7.94
2017-11-08T03:13:03.578Z,8.00
2017-11-08T03:14:03.569Z,7.91
2017-11-08T03:15:03.558Z,7.91
2017-11-08T03:16:03.555Z,7.96
2017-11-08T03:17:03.546Z,7.91
2017-11-08T03:18:03.538Z,7.88
2017-11-08T03:19:03.533Z,8.02
2017-11-08T03:20:03.527Z,7.91
2017-11-08T03:21:03.519Z,7.94
2017-11-08T03:22:03.510Z,7.92
2017-11-08T03:23:03.508Z,7.86
2017-11-08T03:24:03.509Z,7.86
2017-11-08T03:25:03.494Z,7.85
2017-11-08T03:26:03.487Z,7.89
2017-11-08T03:27:03.481Z,7.91
2017-11-08T03:28:03.473Z,7.88
2017-11-08T03:29:03.467Z,7.88
2017-11-08T03:30:03.464Z,7.88
2017-11-08T03:31:03.452Z,7.88
2017-11-08T03:32:03.442Z,7.85
2017-11-08T03:33:03.436Z,7.88
2017-11-08T03:34:03.428Z,7.77
2017-11-08T03:35:03.423Z,7.85
2017-11-08T03:36:03.415Z,7.92
2017-11-08T03:37:03.409Z,7.86
2017-11-08T03:38:03.400Z,7.86
2017-11-08T03:39:03.398Z,7.94
2017-11-08T03:40:03.392Z,7.86
2017-11-08T03:41:03.384Z,7.88
2017-11-08T03:42:03.377Z,7.89
2017-11-08T03:43:03.367Z,7.88
2017-11-08T03:44:03.360Z,7.86
2017-11-08T03:45:03.354Z,7.89
2017-11-08T03:46:03.344Z,7.88
2017-11-08T03:47:03.345Z,7.88
2017-11-08T03:48:03.336Z,7.88
2017-11-08T03:49:03.331Z,7.86
2017-11-08T03:50:03.322Z,7.85
2017-11-08T03:51:03.316Z,7.85
2017-11-08T03:52:03.309Z,7.86
2017-11-08T03:53:03.303Z,7.89
2017-11-08T03:54:03.295Z,7.86
2017-11-08T03:55:03.285Z,7.86
2017-11-08T03:56:03.278Z,7.84
2017-11-08T03:57:03.271Z,7.86
2017-11-08T03:58:03.263Z,7.88
2017-11-08T03:59:03.257Z,7.85
2017-11-08T04:00:03.249Z,7.84
2017-11-08T04:01:03.244Z,7.89
2017-11-08T04:02:03.236Z,7.81
2017-11-08T04:03:03.238Z,7.88
2017-11-08T04:04:03.230Z,7.86
2017-11-08T04:05:03.225Z,7.88
2017-11-08T04:06:03.211Z,7.88
2017-11-08T04:07:03.206Z,7.82
2017-11-08T04:08:03.199Z,7.91
2017-11-08T04:09:03.193Z,7.84
2017-11-08T04:10:03.185Z,7.88
2017-11-08T04:11:03.176Z,7.84
2017-11-08T04:12:03.168Z,7.82
2017-11-08T04:13:03.164Z,7.76
2017-11-08T04:14:03.154Z,7.81
2017-11-08T04:15:03.145Z,7.81
2017-11-08T04:16:03.139Z,7.77
2017-11-08T04:17:03.132Z,7.77
2017-11-08T04:18:03.127Z,7.76
2017-11-08T04:19:03.123Z,7.74
2017-11-08T04:20:03.117Z,7.81
2017-11-08T04:21:03.110Z,7.71
2017-11-08T04:22:03.103Z,7.74
2017-11-08T04:23:03.096Z,7.77
2017-11-08T04:24:03.090Z,7.84
2017-11-08T04:25:03.084Z,7.81
2017-11-08T04:26:03.076Z,7.79
2017-11-08T04:27:03.064Z,7.85
2017-11-08T04:28:03.061Z,7.84
2017-11-08T04:29:03.051Z,7.84
2017-11-08T04:30:03.044Z,7.85
2017-11-08T04:31:03.039Z,7.76
2017-11-08T04:32:03.034Z,7.86
2017-11-08T04:33:03.025Z,7.86
2017-11-08T04:34:03.017Z,7.91
2017-11-08T04:35:03.014Z,7.89
2017-11-08T04:36:03.006Z,7.88
2017-11-08T04:37:03.001Z,7.81
2017-11-08T04:38:02.993Z,7.84
2017-11-08T04:39:02.987Z,7.85
2017-11-08T04:40:02.980Z,7.86
2017-11-08T04:41:02.974Z,7.88
2017-11-08T04:42:02.966Z,7.89
2017-11-08T04:43:02.956Z,7.86
2017-11-08T04:44:02.948Z,7.89
2017-11-08T04:45:02.941Z,7.91
2017-11-08T04:46:02.934Z,7.89
2017-11-08T04:47:02.933Z,7.91
2017-11-08T04:48:02.925Z,7.88
2017-11-08T04:49:02.917Z,7.99
2017-11-08T04:50:02.915Z,8.00
2017-11-08T04:51:02.900Z,8.00
2017-11-08T04:52:02.892Z,7.89
2017-11-08T04:53:02.891Z,7.92
2017-11-08T04:54:02.878Z,7.86
2017-11-08T04:55:02.874Z,7.86
2017-11-08T04:56:02.866Z,7.88
2017-11-08T04:57:02.859Z,7.89
2017-11-08T04:58:02.851Z,7.89
2017-11-08T04:59:02.847Z,7.84
2017-11-08T05:00:02.842Z,7.84
2017-11-08T05:01:02.838Z,7.77
2017-11-08T05:02:02.829Z,7.74
2017-11-08T05:03:02.823Z,7.74
2017-11-08T05:04:02.814Z,7.81
2017-11-08T05:05:02.806Z,7.77
2017-11-08T05:06:02.798Z,7.82
2017-11-08T05:07:02.787Z,7.77
2017-11-08T05:08:02.780Z,7.79
2017-11-08T05:09:02.774Z,7.84
2017-11-08T05:10:02.766Z,7.79
2017-11-08T05:11:02.757Z,7.84
2017-11-08T05:12:02.751Z,7.77
2017-11-08T05:13:02.744Z,7.74
2017-11-08T05:14:02.737Z,7.82
2017-11-08T05:15:02.733Z,7.81
2017-11-08T05:16:02.727Z,7.85
2017-11-08T05:17:02.720Z,7.81
2017-11-08T05:18:02.712Z,7.73
2017-11-08T05:19:02.704Z,7.82
2017-11-08T05:20:02.705Z,7.82
2017-11-08T05:21:02.692Z,7.77
2017-11-08T05:22:02.684Z,7.76
2017-11-08T05:23:02.672Z,7.74
2017-11-08T05:24:02.666Z,7.71
2017-11-08T05:25:02.660Z,7.73
2017-11-08T05:26:02.650Z,7.73
2017-11-08T05:27:02.643Z,7.73
2017-11-08T05:28:02.638Z,7.73
2017-11-08T05:29:02.630Z,7.82
2017-11-08T05:30:02.624Z,7.76
2017-11-08T05:31:02.621Z,7.85
2017-11-08T05:32:02.612Z,7.85
2017-11-08T05:33:02.606Z,7.79
2017-11-08T05:34:02.598Z,7.82
2017-11-08T05:35:02.591Z,7.77
2017-11-08T05:36:02.584Z,7.76
2017-11-08T05:37:02.577Z,7.71
2017-11-08T05:38:02.570Z,7.79
2017-11-08T05:39:02.558Z,7.77
2017-11-08T05:40:02.551Z,7.82
2017-11-08T05:41:02.544Z,7.85
2017-11-08T05:42:02.538Z,7.82
2017-11-08T05:43:02.531Z,7.84
2017-11-08T05:44:02.525Z,7.88
2017-11-08T05:45:02.516Z,7.88
2017-11-08T05:46:02.509Z,7.82
2017-11-08T05:47:02.522Z,7.79
2017-11-08T05:48:02.501Z,7.82
2017-11-08T05:49:02.492Z,7.79
2017-11-08T05:50:02.485Z,7.74
2017-11-08T05:51:02.473Z,7.77
2017-11-08T05:52:02.466Z,7.70
2017-11-08T05:53:02.461Z,7.76
2017-11-08T05:54:02.452Z,7.79
2017-11-08T05:55:02.457Z,7.81
2017-11-08T05:56:02.444Z,7.84
2017-11-08T05:57:02.437Z,7.84
2017-11-08T05:58:02.428Z,7.85
2017-11-08T05:59:02.422Z,7.81
2017-11-08T06:00:02.415Z,7.88
2017-11-08T06:01:02.408Z,7.91
2017-11-08T06:02:02.401Z,7.74
2017-11-08T06:03:02.390Z,7.85
2017-11-08T06:04:02.386Z,7.89
2017-11-08T06:05:02.376Z,7.84
2017-11-08T06:06:02.369Z,7.89
2017-11-08T06:07:02.363Z,7.91
2017-11-08T06:08:02.355Z,7.89
2017-11-08T06:09:02.348Z,7.92
2017-11-08T06:10:02.340Z,7.94
2017-11-08T06:11:02.338Z,7.92
2017-11-08T06:12:02.332Z,7.99
2017-11-08T06:13:02.323Z,7.99
2017-11-08T06:14:02.316Z,7.94
2017-11-08T06:15:02.310Z,7.94
2017-11-08T06:16:02.302Z,7.99
2017-11-08T06:17:02.297Z,7.96
2017-11-08T06:18:02.289Z,8.07
2017-11-08T06:19:02.277Z,8.03
2017-11-08T06:20:02.270Z,7.94
2017-11-08T06:21:02.265Z,7.95
2017-11-08T06:22:02.257Z,7.95
2017-11-08T06:23:02.249Z,7.92
2017-11-08T06:24:02.242Z,7.96
2017-11-08T06:25:02.236Z,7.96
2017-11-08T06:26:02.230Z,7.96
2017-11-08T06:27:02.227Z,7.96
2017-11-08T06:28:02.220Z,7.94
2017-11-08T06:29:02.214Z,7.92
2017-11-08T06:30:02.205Z,7.99
2017-11-08T06:31:02.198Z,7.92
2017-11-08T06:32:02.192Z,7.85
2017-11-08T06:33:02.185Z,7.88
2017-11-08T06:34:02.178Z,7.88
2017-11-08T06:35:02.165Z,7.92
2017-11-08T06:36:02.160Z,8.00
2017-11-08T06:37:02.152Z,8.03
2017-11-08T06:38:02.145Z,8.03
2017-11-08T06:39:02.138Z,8.00
2017-11-08T06:40:02.131Z,8.02
2017-11-08T06:41:02.126Z,7.94
2017-11-08T06:42:02.118Z,7.96
2017-11-08T06:43:02.115Z,8.06
2017-11-08T06:44:02.108Z,8.07
2017-11-08T06:45:02.103Z,8.07
2017-11-08T06:46:02.094Z,8.13
2017-11-08T06:47:02.088Z,8.13
2017-11-08T06:48:02.081Z,8.07
2017-11-08T06:49:02.075Z,8.04
2017-11-08T06:50:02.067Z,8.12
2017-11-08T06:51:02.055Z,8.10
2017-11-08T06:52:02.049Z,8.20
2017-11-08T06:53:02.055Z,8.06
2017-11-08T06:54:02.034Z,8.12
2017-11-08T06:55:02.027Z,8.10
2017-11-08T06:56:02.021Z,8.17
2017-11-08T06:57:02.015Z,8.14
2017-11-08T06:58:02.006Z,8.14
2017-11-08T06:59:02.004Z,8.17
2017-11-08T07:00:01.997Z,8.20
2017-11-08T07:01:01.991Z,8.10
2017-11-08T07:02:01.982Z,8.10
2017-11-08T07:03:01.974Z,8.10
2017-11-08T07:04:01.969Z,8.14
2017-11-08T07:05:01.963Z,8.13
2017-11-08T07:06:01.962Z,8.12
2017-11-08T07:07:01.943Z,8.20
2017-11-08T07:08:01.936Z,8.21
2017-11-08T07:09:01.930Z,8.20
2017-11-08T07:10:01.923Z,8.28
2017-11-08T07:11:01.917Z,8.28
2017-11-08T07:12:01.910Z,8.31
2017-11-08T07:13:01.902Z,8.31
2017-11-08T07:14:01.895Z,8.28
2017-11-08T07:15:01.894Z,8.31
2017-11-08T07:16:01.886Z,8.24
2017-11-08T07:17:01.878Z,8.39
2017-11-08T07:18:01.879Z,8.37
2017-11-08T07:19:01.865Z,8.36
2017-11-08T07:20:01.857Z,8.39
2017-11-08T07:21:01.851Z,8.34
2017-11-08T07:22:01.844Z,8.36
2017-11-08T07:23:01.834Z,8.37
2017-11-08T07:24:01.826Z,8.34
2017-11-08T07:25:01.820Z,8.34
2017-11-08T07:26:01.811Z,8.34
2017-11-08T07:27:01.811Z,8.43
2017-11-08T07:28:01.798Z,8.46
2017-11-08T07:29:01.792Z,8.46
2017-11-08T07:30:01.785Z,8.43
2017-11-08T07:31:01.781Z,8.50
2017-11-08T07:32:01.775Z,8.42
2017-11-08T07:33:01.768Z,8.39
2017-11-08T07:34:01.764Z,8.43
2017-11-08T07:35:01.754Z,8.49
2017-11-08T07:36:01.748Z,8.50
2017-11-08T07:37:01.741Z,8.54
2017-11-08T07:38:01.733Z,8.55
2017-11-08T07:39:01.724Z,8.42
2017-11-08T07:40:01.718Z,8.57
2017-11-08T07:41:01.710Z,8.50
2017-11-08T07:42:01.701Z,8.55
2017-11-08T07:43:01.695Z,8.42
2017-11-08T07:44:01.690Z,8.46
2017-11-08T07:45:01.683Z,8.46
2017-11-08T07:46:01.680Z,8.47
2017-11-08T07:47:01.694Z,8.49
2017-11-08T07:48:01.668Z,8.43
2017-11-08T07:49:01.659Z,8.49
2017-11-08T07:50:01.651Z,8.43
2017-11-08T07:51:01.645Z,8.42
2017-11-08T07:52:01.638Z,8.43
2017-11-08T07:53:01.632Z,8.40
2017-11-08T07:54:01.624Z,8.52
2017-11-08T07:55:01.612Z,8.43
2017-11-08T07:56:01.607Z,8.45
2017-11-08T07:57:01.601Z,8.45
2017-11-08T07:58:01.593Z,8.50
2017-11-08T07:59:01.590Z,8.57
2017-11-08T08:00:01.583Z,8.61
2017-11-08T08:01:01.577Z,8.65
2017-11-08T08:02:01.569Z,8.71
2017-11-08T08:03:01.558Z,8.73
2017-11-08T08:04:01.553Z,8.85
2017-11-08T08:05:01.547Z,8.71
2017-11-08T08:06:01.538Z,8.80
2017-11-08T08:07:01.532Z,8.83
2017-11-08T08:08:01.525Z,8.85
2017-11-08T08:09:01.518Z,9.04
2017-11-08T08:10:01.512Z,8.98
2017-11-08T08:11:01.509Z,9.06
2017-11-08T08:12:01.502Z,8.96
2017-11-08T08:13:01.496Z,9.08
2017-11-08T08:14:01.490Z,9.13
2017-11-08T08:15:01.483Z,9.06
2017-11-08T08:16:01.478Z,9.15
2017-11-08T08:17:01.470Z,9.12
2017-11-08T08:18:01.464Z,9.22
2017-11-08T08:19:01.454Z,9.19
2017-11-08T08:20:01.448Z,9.27
2017-11-08T08:21:01.440Z,9.27
2017-11-08T08:22:01.432Z,9.30
2017-11-08T08:23:01.426Z,9.38
2017-11-08T08:24:01.419Z,9.35
2017-11-08T08:25:01.413Z,9.42
2017-11-08T08:26:01.408Z,9.40
2017-11-08T08:27:01.406Z,9.42
2017-11-08T08:28:01.398Z,9.41
2017-11-08T08:29:01.393Z,9.45
2017-11-08T08:30:01.386Z,9.42
2017-11-08T08:31:01.379Z,9.42
2017-11-08T08:32:01.377Z,9.42
2017-11-08T08:33:01.368Z,9.45
2017-11-08T08:34:01.361Z,9.44
2017-11-08T08:35:01.350Z,9.41
2017-11-08T08:36:01.345Z,9.42
2017-11-08T08:37:01.345Z,9.45
2017-11-08T08:38:01.331Z,9.52
2017-11-08T08:39:01.325Z,9.49
2017-11-08T08:40:01.320Z,9.44
2017-11-08T08:41:01.312Z,9.52
2017-11-08T08:42:01.306Z,9.50
2017-11-08T08:43:01.305Z,9.60
2017-11-08T08:44:01.301Z,9.58
2017-11-08T08:45:01.292Z,9.63
2017-11-08T08:46:01.286Z,9.56
2017-11-08T08:47:01.279Z,9.65
2017-11-08T08:48:01.275Z,9.70
2017-11-08T08:49:01.269Z,9.70
2017-11-08T08:50:01.261Z,9.67
2017-11-08T08:51:01.255Z,9.62
2017-11-08T08:52:01.246Z,9.67
2017-11-08T08:53:01.239Z,9.65
2017-11-08T08:54:01.234Z,9.67
2017-11-08T08:55:01.228Z,9.58
2017-11-08T08:56:01.223Z,9.65
2017-11-08T08:57:01.217Z,9.65
2017-11-08T08:58:01.212Z,9.65
2017-11-08T08:59:01.207Z,9.65
2017-11-08T09:00:01.203Z,9.59
2017-11-08T09:01:01.196Z,9.59
2017-11-08T09:02:01.190Z,9.70
2017-11-08T09:03:01.181Z,9.68
2017-11-08T09:04:01.174Z,9.55
2017-11-08T09:05:01.168Z,9.59
2017-11-08T09:06:01.161Z,9.59
2017-11-08T09:07:01.160Z,9.63
2017-11-08T09:08:01.154Z,9.59
2017-11-08T09:09:01.149Z,9.59
2017-11-08T09:10:01.141Z,9.59
2017-11-08T09:11:01.136Z,9.62
2017-11-08T09:12:01.131Z,9.65
2017-11-08T09:13:01.126Z,9.62
2017-11-08T09:14:01.118Z,9.65
2017-11-08T09:15:01.106Z,9.65
2017-11-08T09:16:01.101Z,9.63
2017-11-08T09:17:01.097Z,9.58
2017-11-08T09:18:01.090Z,9.62
2017-11-08T09:19:01.084Z,9.60
2017-11-08T09:20:01.078Z,9.59
2017-11-08T09:21:01.073Z,9.62
2017-11-08T09:22:01.065Z,9.62
2017-11-08T09:23:01.065Z,9.60
2017-11-08T09:24:01.059Z,9.59
2017-11-08T09:25:01.054Z,9.49
2017-11-08T09:26:01.047Z,9.49
2017-11-08T09:27:01.041Z,9.50
2017-11-08T09:28:01.036Z,9.49
2017-11-08T09:29:01.030Z,9.55
2017-11-08T09:30:01.024Z,9.56
2017-11-08T09:31:01.014Z,9.62
2017-11-08T09:32:01.008Z,9.60
2017-11-08T09:33:01.001Z,9.65
2017-11-08T09:34:00.995Z,9.67
2017-11-08T09:35:00.989Z,9.71
2017-11-08T09:36:00.983Z,9.65
2017-11-08T09:37:00.979Z,9.70
2017-11-08T09:38:00.971Z,9.77
2017-11-08T09:39:00.969Z,9.75
2017-11-08T09:40:00.963Z,9.75
2017-11-08T09:41:00.958Z,9.78
2017-11-08T09:42:00.952Z,9.74
2017-11-08T09:43:00.946Z,9.74
2017-11-08T09:44:00.941Z,9.78
2017-11-08T09:45:00.935Z,9.73
2017-11-08T09:46:00.927Z,9.65
2017-11-08T09:47:00.919Z,9.62
2017-11-08T09:48:00.917Z,9.63
2017-11-08T09:49:00.908Z,9.70
2017-11-08T09:50:00.905Z,9.77
2017-11-08T09:51:00.896Z,9.67
2017-11-08T09:52:00.890Z,9.75
2017-11-08T09:53:00.924Z,9.73
2017-11-08T09:54:00.878Z,9.68
2017-11-08T09:55:00.877Z,9.77
2017-11-08T09:56:00.871Z,9.78
2017-11-08T09:57:00.881Z,9.81
2017-11-08T09:58:00.860Z,9.89
2017-11-08T09:59:00.854Z,9.95
2017-11-08T10:00:00.861Z,9.88
2017-11-08T10:01:00.843Z,9.92
2017-11-08T10:02:00.835Z,9.91
2017-11-08T10:03:00.828Z,9.92
2017-11-08T10:04:00.831Z,9.92
2017-11-08T10:05:00.816Z,9.95
2017-11-08T10:06:00.809Z,9.95
2017-11-08T10:07:00.808Z,9.98
2017-11-08T10:08:00.802Z,10.01
2017-11-08T10:09:00.806Z,9.99
2017-11-08T10:10:00.830Z,10.01
2017-11-08T10:11:00.807Z,10.09
2017-11-08T10:12:00.776Z,10.07
2017-11-08T10:13:00.770Z,10.11
2017-11-08T10:14:00.780Z,10.17
2017-11-08T10:15:00.758Z,10.18
2017-11-08T10:16:00.754Z,10.26
2017-11-08T10:17:00.752Z,10.11
2017-11-08T10:18:00.742Z,10.22
2017-11-08T10:19:00.742Z,10.16
2017-11-08T10:20:00.755Z,10.16
2017-11-08T10:21:00.754Z,10.11
2017-11-08T10:22:00.724Z,10.10
2017-11-08T10:23:00.719Z,9.96
2017-11-08T10:24:00.713Z,9.98
2017-11-08T10:25:00.708Z,9.93
2017-11-08T10:26:00.704Z,9.91
2017-11-08T10:27:00.693Z,9.92
2017-11-08T10:28:00.688Z,9.98
2017-11-08T10:29:00.681Z,9.96
2017-11-08T10:30:00.677Z,10.06
2017-11-08T10:31:00.671Z,10.10
2017-11-08T10:32:00.667Z,10.17
2017-11-08T10:33:00.665Z,10.17
2017-11-08T10:34:00.654Z,10.14
2017-11-08T10:35:00.655Z,10.17
2017-11-08T10:36:00.648Z,10.25
2017-11-08T10:37:00.649Z,10.22
2017-11-08T10:38:00.637Z,10.22
2017-11-08T10:39:00.632Z,10.35
2017-11-08T10:40:00.625Z,10.38
2017-11-08T10:41:00.621Z,10.31
2017-11-08T10:42:00.603Z,10.31
2017-11-08T10:43:00.570Z,10.29
2017-11-08T10:44:00.566Z,10.35
2017-11-08T10:45:00.560Z,10.34
2017-11-08T10:46:00.555Z,10.39
2017-11-08T10:47:00.551Z,10.46
2017-11-08T10:48:00.545Z,10.49
2017-11-08T10:49:00.555Z,10.54
2017-11-08T10:50:00.532Z,10.55
2017-11-08T10:51:00.542Z,10.54
2017-11-08T10:52:00.528Z,10.49
2017-11-08T10:53:00.524Z,10.44
2017-11-08T10:54:00.515Z,10.42
2017-11-08T10:55:00.511Z,10.49
2017-11-08T10:56:00.505Z,10.43
2017-11-08T10:57:00.500Z,10.32
2017-11-08T10:58:00.494Z,10.39
2017-11-08T10:59:00.485Z,10.32
2017-11-08T11:00:00.480Z,10.35
2017-11-08T11:01:00.481Z,10.39
2017-11-08T11:02:00.469Z,10.42
2017-11-08T11:03:00.464Z,10.46
2017-11-08T11:04:00.460Z,10.46
2017-11-08T11:05:00.459Z,10.46
2017-11-08T11:06:00.450Z,10.44
2017-11-08T11:07:00.449Z,10.47
2017-11-08T11:08:00.443Z,10.55
2017-11-08T11:09:00.439Z,10.63
2017-11-08T11:10:00.435Z,10.66
2017-11-08T11:11:00.425Z,10.80
2017-11-08T11:12:00.420Z,10.66
2017-11-08T11:13:00.416Z,10.68
2017-11-08T11:14:00.419Z,10.62
2017-11-08T11:15:00.409Z,10.43
2017-11-08T11:16:00.405Z,10.46
2017-11-08T11:17:00.400Z,10.46
2017-11-08T11:18:00.395Z,10.47
2017-11-08T11:19:00.395Z,10.46
2017-11-08T11:20:00.387Z,10.47
2017-11-08T11:21:00.385Z,10.44
2017-11-08T11:22:00.376Z,10.43
2017-11-08T11:23:00.369Z,10.43
2017-11-08T11:24:00.367Z,10.46
2017-11-08T11:25:00.359Z,10.55
2017-11-08T11:26:00.353Z,10.52
2017-11-08T11:27:00.349Z,10.55
2017-11-08T11:28:00.343Z,10.60
2017-11-08T11:29:00.339Z,10.58
2017-11-08T11:30:00.333Z,10.76
2017-11-08T11:31:00.332Z,10.69
2017-11-08T11:32:00.345Z,10.68
2017-11-08T11:33:00.324Z,10.75
2017-11-08T11:34:00.319Z,10.83
2017-11-08T11:35:00.314Z,10.76
2017-11-08T11:36:00.309Z,10.87
2017-11-08T11:37:00.305Z,10.90
2017-11-08T11:38:00.300Z,10.84
2017-11-08T11:39:00.292Z,10.81
2017-11-08T11:40:00.285Z,10.80
2017-11-08T11:41:00.281Z,10.70
2017-11-08T11:42:00.277Z,10.60
2017-11-08T11:43:00.271Z,10.51
2017-11-08T11:44:00.266Z,10.47
2017-11-08T11:45:00.265Z,10.60
2017-11-08T11:46:00.258Z,10.55
2017-11-08T11:47:00.257Z,10.38
2017-11-08T11:48:00.301Z,10.42
2017-11-08T11:49:00.246Z,10.35
2017-11-08T11:50:00.242Z,10.42
2017-11-08T11:51:00.237Z,10.44
2017-11-08T11:52:00.232Z,10.34
2017-11-08T11:53:00.227Z,10.38
2017-11-08T11:54:00.221Z,10.29
2017-11-08T11:55:00.212Z,10.34
2017-11-08T11:56:00.208Z,10.46
2017-11-08T11:57:00.203Z,10.44
2017-11-08T11:58:00.197Z,10.51
2017-11-08T11:59:00.193Z,10.51
2017-11-08T12:00:00.187Z,10.57
2017-11-08T12:01:00.182Z,10.66
2017-11-08T12:02:00.178Z,10.65
2017-11-08T12:03:00.177Z,10.65
2017-11-08T12:04:00.171Z,10.63
2017-11-08T12:05:00.167Z,10.62
2017-11-08T12:06:00.162Z,10.60
2017-11-08T12:07:00.156Z,10.70
2017-11-08T12:08:00.152Z,10.65
2017-11-08T12:09:00.147Z,10.87
2017-11-08T12:10:00.141Z,10.87
2017-11-08T12:11:00.133Z,10.83
2017-11-08T12:12:00.128Z,10.87
2017-11-08T12:13:00.122Z,10.83
2017-11-08T12:14:00.116Z,10.95
2017-11-08T12:15:00.124Z,10.93
2017-11-08T12:16:00.114Z,10.91
2017-11-08T12:17:00.108Z,10.99
2017-11-08T12:18:00.101Z,11.02
2017-11-08T12:19:00.093Z,11.03
2017-11-08T12:20:00.088Z,10.98
2017-11-08T12:21:00.089Z,11.05
2017-11-08T12:22:00.076Z,11.11
2017-11-08T12:23:00.072Z,11.03
2017-11-08T12:24:00.067Z,10.95
2017-11-08T12:25:00.062Z,10.94
2017-11-08T12:26:00.057Z,10.98
2017-11-08T12:27:00.057Z,10.91
2017-11-08T12:28:00.051Z,10.93
2017-11-08T12:29:00.048Z,10.93
2017-11-08T12:30:00.041Z,10.95
2017-11-08T12:31:00.038Z,11.02
2017-11-08T12:32:00.033Z,11.01
2017-11-08T12:33:00.028Z,11.01
2017-11-08T12:34:00.022Z,11.05
2017-11-08T12:35:00.013Z,11.05
2017-11-08T12:36:00.013Z,11.05
2017-11-08T12:37:00.002Z,11.03
2017-11-08T12:37:59.999Z,11.08
2017-11-08T12:38:59.993Z,11.13
2017-11-08T12:39:59.990Z,11.09
2017-11-08T12:40:59.984Z,11.20
2017-11-08T12:41:59.977Z,11.20
2017-11-08T12:42:59.977Z,11.11
2017-11-08T12:43:59.973Z,11.13
2017-11-08T12:44:59.966Z,11.12
2017-11-08T12:45:59.962Z,11.20
2017-11-08T12:46:59.956Z,11.17
2017-11-08T12:47:59.952Z,11.16
2017-11-08T12:48:59.949Z,11.06
2017-11-08T12:49:59.942Z,11.08
2017-11-08T12:50:59.932Z,11.06
2017-11-08T12:51:59.929Z,10.99
2017-11-08T12:52:59.924Z,11.12
2017-11-08T12:53:59.931Z,11.05
2017-11-08T12:54:59.915Z,11.16
2017-11-08T12:55:59.909Z,11.13
2017-11-08T12:56:59.905Z,11.13
2017-11-08T12:57:59.899Z,11.20
2017-11-08T12:58:59.899Z,11.20
2017-11-08T12:59:59.894Z,11.16
2017-11-08T13:00:59.920Z,11.16
2017-11-08T13:01:59.884Z,11.06
2017-11-08T13:02:59.884Z,11.08
2017-11-08T13:03:59.874Z,11.05
2017-11-08T13:04:59.869Z,10.99
2017-11-08T13:05:59.865Z,11.01
2017-11-08T13:06:59.855Z,10.99
2017-11-08T13:07:59.851Z,11.01
2017-11-08T13:08:59.846Z,10.91
2017-11-08T13:09:59.842Z,10.99
2017-11-08T13:10:59.858Z,11.02
2017-11-08T13:11:59.832Z,10.99